Time;durP1;ratioP1;P1;durP2;ratioP2;P2;SDS_P1;SDS_P2;PMS_P1;PMS_P2;Temp;Humidity;BMP_temperature;BMP_pressure;BME280_temperature;BME280_humidity;BME280_pressure;Samples;Min_cycle;Max_cycle;Signal;HPM_P1;HPM_P2
2023/04/08 00:00:25;;;;;;;;;9.00;9.00;;;;;11.21;100.00;101491.28;4874263;29;45767;-83
2023/04/08 00:02:50;;;;;;;;;5.33;5.33;;;;;11.24;100.00;101500.22;4873187;29;45437;-83
2023/04/08 00:05:16;;;;;;;;;8.33;7.33;;;;;11.19;100.00;101498.34;4872875;29;45424;-83
2023/04/08 00:07:41;;;;;;;;;8.33;6.33;;;;;11.21;100.00;101498.38;4872339;29;45428;-83
2023/04/08 00:10:07;;;;;;;;;9.00;7.00;;;;;11.25;100.00;101508.25;4855910;29;45400;-83
2023/04/08 00:12:33;;;;;;;;;10.00;10.00;;;;;11.21;100.00;101501.03;4857284;29;48221;-83
2023/04/08 00:14:58;;;;;;;;;7.33;5.67;;;;;11.25;100.00;101502.91;4856458;29;44814;-83
2023/04/08 00:17:23;;;;;;;;;6.33;6.33;;;;;11.18;100.00;101506.28;4858257;29;45401;-83
2023/04/08 00:19:49;;;;;;;;;6.33;6.33;;;;;11.17;100.00;101504.50;4856495;29;44900;-83
2023/04/08 00:22:14;;;;;;;;;8.00;8.00;;;;;11.14;100.00;101504.41;4857086;29;47140;-83
2023/04/08 00:24:40;;;;;;;;;7.33;6.00;;;;;11.10;100.00;101505.19;4874979;29;45317;-83
2023/04/08 00:27:05;;;;;;;;;7.00;5.00;;;;;11.14;100.00;101507.06;4872999;29;45554;-83
2023/04/08 00:29:31;;;;;;;;;5.67;5.67;;;;;11.09;100.00;101503.38;4873108;29;45454;-83
2023/04/08 00:31:57;;;;;;;;;7.33;7.33;;;;;11.15;100.00;101506.19;4875067;29;45481;-83
2023/04/08 00:34:30;;;;;;;;;8.33;7.33;;;;;11.09;100.00;101512.28;4857483;29;45319;-83
2023/04/08 00:36:55;;;;;;;;;6.00;6.00;;;;;11.10;100.00;101508.75;4873862;29;45562;-83
2023/04/08 00:39:20;;;;;;;;;9.00;8.00;;;;;11.08;100.00;101509.59;4856607;29;45542;-82
2023/04/08 00:41:46;;;;;;;;;8.00;8.00;;;;;11.09;100.00;101506.03;4857028;29;47261;-83
2023/04/08 00:44:11;;;;;;;;;8.00;7.00;;;;;11.10;100.00;101513.19;4856411;29;45362;-83
2023/04/08 00:46:38;;;;;;;;;5.00;5.00;;;;;11.08;100.00;101506.94;4874235;29;45707;-83
2023/04/08 00:49:04;;;;;;;;;9.00;7.33;;;;;10.96;100.00;101510.19;4856607;29;45599;-83
2023/04/08 00:51:30;;;;;;;;;5.67;5.67;;;;;10.95;100.00;101525.25;4873978;29;46356;-82
2023/04/08 00:53:56;;;;;;;;;8.00;7.00;;;;;10.98;100.00;101513.78;4873880;29;45487;-82
2023/04/08 00:56:23;;;;;;;;;7.00;7.00;;;;;11.06;100.00;101521.97;4873682;29;45306;-83
2023/04/08 00:58:52;;;;;;;;;9.67;7.00;;;;;10.98;100.00;101516.44;4873825;29;45366;-82
2023/04/08 01:01:28;;;;;;;;;7.33;7.33;;;;;11.01;100.00;101520.09;4856096;29;47280;-83
2023/04/08 01:04:15;;;;;;;;;8.00;6.33;;;;;11.09;100.00;101519.34;4856381;29;45540;-83
2023/04/08 01:06:54;;;;;;;;;5.67;5.33;;;;;11.05;100.00;101520.16;4856930;29;45474;-82
2023/04/08 01:09:22;;;;;;;;;9.33;8.00;;;;;10.92;100.00;101518.94;4866084;29;45566;-83
2023/04/08 01:11:51;;;;;;;;;7.33;7.33;;;;;10.93;100.00;101515.44;4840634;29;47580;-82
2023/04/08 01:14:20;;;;;;;;;9.33;8.67;;;;;10.95;100.00;101514.63;4852258;29;45399;-82
2023/04/08 01:16:46;;;;;;;;;12.33;7.00;;;;;10.87;100.00;101516.19;4852410;29;45469;-82
2023/04/08 01:19:25;;;;;;;;;6.67;6.67;;;;;10.89;100.00;101514.47;4837078;29;44853;-82
2023/04/08 01:21:54;;;;;;;;;9.33;8.00;;;;;10.90;100.00;101520.69;4866575;29;48261;-82
2023/04/08 01:24:27;;;;;;;;;7.00;7.00;;;;;10.86;100.00;101509.03;4837213;29;45192;-82
2023/04/08 01:26:55;;;;;;;;;8.00;7.00;;;;;10.79;100.00;101515.97;4853761;29;45441;-82
2023/04/08 01:29:23;;;;;;;;;9.00;7.33;;;;;10.77;100.00;101519.47;4868362;29;45498;-81
2023/04/08 01:31:50;;;;;;;;;8.33;6.00;;;;;10.78;100.00;101526.56;4853650;29;46270;-82
2023/04/08 01:34:17;;;;;;;;;10.67;9.00;;;;;10.76;100.00;101515.00;4866523;29;45439;-82
2023/04/08 01:36:45;;;;;;;;;7.67;7.67;;;;;10.73;100.00;101523.81;4849848;29;45508;-82
2023/04/08 01:39:12;;;;;;;;;7.67;7.67;;;;;10.64;100.00;101522.66;4851981;29;45415;-82
2023/04/08 01:41:38;;;;;;;;;8.00;8.00;;;;;10.69;100.00;101531.69;4851777;29;45462;-82
2023/04/08 01:44:05;;;;;;;;;6.00;6.00;;;;;10.74;100.00;101506.06;4850045;29;45528;-82
2023/04/08 01:46:31;;;;;;;;;13.00;8.33;;;;;10.67;100.00;101520.09;4833843;29;45307;-83
2023/04/08 01:48:58;;;;;;;;;13.00;10.33;;;;;10.63;100.00;101507.59;4834032;29;45484;-83
2023/04/08 01:51:25;;;;;;;;;8.00;8.00;;;;;10.59;100.00;101515.47;4864079;29;47760;-82
2023/04/08 01:53:51;;;;;;;;;9.00;8.00;;;;;10.63;100.00;101516.44;4864155;29;45449;-82
2023/04/08 01:56:21;;;;;;;;;9.33;7.00;;;;;10.71;100.00;101519.31;4849676;29;45428;-82
2023/04/08 01:58:51;;;;;;;;;8.00;8.00;;;;;10.65;100.00;101524.47;4852832;29;45407;-82
2023/04/08 02:01:20;;;;;;;;;7.67;7.67;;;;;10.59;100.00;101510.16;4852130;29;45520;-83
2023/04/08 02:03:47;;;;;;;;;13.33;12.33;;;;;10.55;100.00;101513.59;4866110;29;45507;-83
2023/04/08 02:06:12;;;;;;;;;9.00;8.33;;;;;10.49;100.00;101518.75;4865670;29;45495;-83
2023/04/08 02:08:38;;;;;;;;;9.33;8.33;;;;;10.41;100.00;101509.66;4851230;29;45719;-83
2023/04/08 02:11:03;;;;;;;;;14.67;9.67;;;;;10.39;100.00;101509.59;4850798;29;46134;-82
2023/04/08 02:13:31;;;;;;;;;13.00;8.67;;;;;10.48;100.00;101513.38;4865015;29;45847;-83
2023/04/08 02:16:03;;;;;;;;;13.33;9.33;;;;;10.50;100.00;101511.66;4865554;29;45455;-82
2023/04/08 02:18:31;;;;;;;;;9.67;7.00;;;;;10.39;100.00;101506.06;4864278;29;45374;-82
2023/04/08 02:21:12;;;;;;;;;8.67;8.33;;;;;10.43;100.00;101507.06;4850293;29;46592;-83
2023/04/08 02:23:39;;;;;;;;;13.33;9.00;;;;;10.36;100.00;101513.94;4850046;29;45210;-82
2023/04/08 02:26:12;;;;;;;;;12.33;9.33;;;;;10.34;100.00;101505.94;4833438;29;45469;-83
2023/04/08 02:28:39;;;;;;;;;11.00;10.67;;;;;10.34;100.00;101513.00;4850382;29;44838;-83
2023/04/08 02:31:09;;;;;;;;;14.00;14.00;;;;;10.40;100.00;101518.47;4864257;29;46955;-83
2023/04/08 02:33:37;;;;;;;;;12.00;12.00;;;;;10.37;100.00;101516.66;4863466;29;45511;-82
2023/04/08 02:36:04;;;;;;;;;10.67;10.00;;;;;10.34;100.00;101507.69;4864979;29;45570;-82
2023/04/08 02:38:30;;;;;;;;;14.00;12.00;;;;;10.39;100.00;101511.38;4851944;29;45630;-83
2023/04/08 02:40:55;;;;;;;;;11.33;10.67;;;;;10.41;100.00;101520.28;4851903;29;45486;-82
2023/04/08 02:43:25;;;;;;;;;13.00;10.67;;;;;10.35;100.00;101518.38;4852984;29;45452;-82
2023/04/08 02:45:51;;;;;;;;;9.00;8.67;;;;;10.33;100.00;101517.41;4850931;29;45355;-83
2023/04/08 02:48:16;;;;;;;;;13.33;12.00;;;;;10.35;100.00;101520.13;4869693;29;45439;-82
2023/04/08 02:50:41;;;;;;;;;9.67;9.33;;;;;10.36;100.00;101516.59;4868717;29;45391;-83
2023/04/08 02:53:08;;;;;;;;;12.33;9.33;;;;;10.39;100.00;101517.59;4869288;29;45838;-83
2023/04/08 02:55:33;;;;;;;;;14.33;13.33;;;;;10.34;100.00;101513.00;4853507;29;45399;-83
2023/04/08 02:57:58;;;;;;;;;12.33;8.67;;;;;10.36;100.00;101509.53;4853168;29;45319;-83
2023/04/08 03:00:24;;;;;;;;;14.00;11.33;;;;;10.39;100.00;101528.22;4870146;29;46183;-82
2023/04/08 03:02:49;;;;;;;;;12.00;12.00;;;;;10.40;100.00;101513.16;4870021;29;44849;-83
2023/04/08 03:05:15;;;;;;;;;14.00;13.00;;;;;10.38;100.00;101517.53;4872353;29;45951;-83
2023/04/08 03:07:41;;;;;;;;;14.67;12.33;;;;;10.38;100.00;101520.19;4855291;29;45586;-83
2023/04/08 03:10:07;;;;;;;;;12.67;12.67;;;;;10.34;100.00;101510.34;4845769;29;47289;-83
2023/04/08 03:12:32;;;;;;;;;14.67;11.67;;;;;10.33;100.00;101504.13;4835886;29;45514;-83
2023/04/08 03:14:57;;;;;;;;;13.67;12.33;;;;;10.40;100.00;101518.47;4834595;29;46462;-82
2023/04/08 03:17:23;;;;;;;;;12.67;10.00;;;;;10.40;100.00;101515.81;4868841;29;45832;-83
2023/04/08 03:19:48;;;;;;;;;14.00;12.67;;;;;10.35;100.00;101510.38;4854955;29;46991;-83
2023/04/08 03:22:13;;;;;;;;;12.67;12.67;;;;;10.36;100.00;101513.94;4872310;29;45441;-83
2023/04/08 03:24:39;;;;;;;;;11.33;11.33;;;;;10.33;100.00;101517.41;4872171;29;45458;-83
2023/04/08 03:27:05;;;;;;;;;15.67;12.33;;;;;10.36;100.00;101527.22;4857788;29;45755;-82
2023/04/08 03:29:30;;;;;;;;;12.67;11.67;;;;;10.33;100.00;101519.19;4873384;29;45422;-82
2023/04/08 03:31:56;;;;;;;;;13.00;12.00;;;;;10.32;100.00;101525.34;4871629;29;45406;-82
2023/04/08 03:34:21;;;;;;;;;16.33;14.33;;;;;10.29;100.00;101515.50;4872205;29;45436;-82
2023/04/08 03:36:48;;;;;;;;;12.33;12.33;;;;;10.34;100.00;101518.31;4873824;29;45368;-82
2023/04/08 03:39:13;;;;;;;;;14.00;14.00;;;;;10.18;100.00;101512.56;4857803;29;47553;-83
2023/04/08 03:41:38;;;;;;;;;12.67;11.33;;;;;10.22;100.00;101505.56;4875437;29;44799;-83
2023/04/08 03:44:04;;;;;;;;;10.33;10.33;;;;;10.24;100.00;101522.47;4873933;29;45671;-83
2023/04/08 03:46:29;;;;;;;;;13.33;13.00;;;;;10.18;100.00;101515.22;4874892;29;45355;-82
2023/04/08 03:48:56;;;;;;;;;13.67;13.67;;;;;10.21;100.00;101523.25;4857267;29;48089;-82
2023/04/08 03:51:21;;;;;;;;;15.33;15.33;;;;;10.08;100.00;101521.13;4856756;29;46864;-82
2023/04/08 03:53:48;;;;;;;;;14.00;12.00;;;;;10.01;100.00;101524.44;4872079;29;45572;-82
2023/04/08 03:56:13;;;;;;;;;17.00;15.33;;;;;9.98;100.00;101514.66;4856366;29;45502;-82
2023/04/08 03:58:38;;;;;;;;;12.00;12.00;;;;;10.02;100.00;101523.63;4869729;29;48277;-83
2023/04/08 04:01:04;;;;;;;;;14.33;13.33;;;;;10.01;100.00;101529.75;4853570;29;45560;-82
2023/04/08 04:03:30;;;;;;;;;18.00;14.00;;;;;9.94;100.00;101520.72;4872512;29;45727;-82
2023/04/08 04:05:56;;;;;;;;;13.67;12.67;;;;;9.92;100.00;101524.19;4855364;29;45543;-83
2023/04/08 04:08:21;;;;;;;;;14.67;14.67;;;;;9.92;100.00;101529.50;4871615;29;45502;-82
2023/04/08 04:10:46;;;;;;;;;14.33;14.33;;;;;9.90;100.00;101528.56;4871657;29;45406;-83
2023/04/08 04:13:12;;;;;;;;;15.33;14.00;;;;;9.89;100.00;101529.41;4870998;29;45390;-83
2023/04/08 04:15:39;;;;;;;;;14.67;12.33;;;;;9.88;100.00;101524.97;4871224;29;45490;-83
2023/04/08 04:18:05;;;;;;;;;14.67;13.33;;;;;9.82;100.00;101521.25;4871559;29;45396;-83
2023/04/08 04:20:30;;;;;;;;;15.67;15.00;;;;;9.81;100.00;101527.41;4855206;29;45503;-83
2023/04/08 04:22:56;;;;;;;;;15.00;15.00;;;;;9.78;100.00;101530.00;4872284;29;45779;-83
2023/04/08 04:25:23;;;;;;;;;19.33;15.67;;;;;9.87;100.00;101526.69;4869317;29;45475;-83
2023/04/08 04:27:48;;;;;;;;;19.33;15.67;;;;;9.73;100.00;101522.72;4867761;29;47262;-82
2023/04/08 04:30:14;;;;;;;;;21.33;18.33;;;;;9.76;100.00;101529.06;4868117;29;45513;-82
2023/04/08 04:32:42;;;;;;;;;18.00;13.67;;;;;9.89;100.00;101537.38;4871032;29;45743;-82
2023/04/08 04:35:09;;;;;;;;;18.00;17.00;;;;;9.73;100.00;101533.38;4872228;29;45655;-84
2023/04/08 04:38:12;;;;;;;;;17.00;15.00;;;;;9.87;100.00;101541.75;4883281;29;47525;-85
2023/04/08 04:40:38;;;;;;;;;12.67;12.67;;;;;9.55;100.00;101533.69;4870445;29;45451;-84
2023/04/08 04:43:04;;;;;;;;;21.00;17.00;;;;;9.52;100.00;101544.25;4854371;29;45706;-83
2023/04/08 04:45:29;;;;;;;;;18.00;15.67;;;;;9.48;100.00;101548.53;4869824;29;45398;-83
2023/04/08 04:47:54;;;;;;;;;15.67;15.33;;;;;9.53;100.00;101556.66;4844866;29;47130;-84
2023/04/08 04:50:21;;;;;;;;;16.67;16.67;;;;;9.64;100.00;101554.34;4850739;29;45551;-84
2023/04/08 04:52:47;;;;;;;;;13.67;13.67;;;;;9.48;100.00;101552.97;4851840;29;45724;-84
2023/04/08 04:55:14;;;;;;;;;13.00;13.00;;;;;9.43;100.00;101547.47;4852504;29;45492;-83
2023/04/08 04:57:39;;;;;;;;;20.33;17.67;;;;;9.50;100.00;101562.78;4852152;29;45790;-83
2023/04/08 05:00:07;;;;;;;;;16.33;16.33;;;;;9.56;100.00;101562.06;4835818;29;45403;-83
2023/04/08 05:02:32;;;;;;;;;16.00;14.00;;;;;9.40;100.00;101555.38;4835487;29;45538;-84
2023/04/08 05:04:58;;;;;;;;;16.00;13.67;;;;;9.39;100.00;101562.44;4854139;29;45404;-84
2023/04/08 05:07:24;;;;;;;;;18.33;16.00;;;;;9.48;100.00;101577.75;4838724;29;47223;-84
2023/04/08 05:09:50;;;;;;;;;21.00;16.33;;;;;9.34;100.00;101566.69;4852889;29;45483;-84
2023/04/08 05:12:15;;;;;;;;;17.00;17.00;;;;;9.37;100.00;101572.13;4865380;29;45425;-84
2023/04/08 05:14:41;;;;;;;;;14.00;13.00;;;;;9.41;100.00;101574.00;4872187;29;45465;-84
2023/04/08 05:17:06;;;;;;;;;17.33;14.00;;;;;9.36;100.00;101558.78;4855135;29;47666;-84
2023/04/08 05:19:32;;;;;;;;;15.67;15.67;;;;;9.35;100.00;101568.50;4871605;29;45452;-84
2023/04/08 05:21:57;;;;;;;;;18.00;17.00;;;;;9.34;100.00;101585.28;4869990;29;45474;-84
2023/04/08 05:24:22;;;;;;;;;20.67;18.00;;;;;9.31;100.00;101587.84;4871193;29;45339;-83
2023/04/08 05:26:51;;;;;;;;;17.33;15.00;;;;;9.30;100.00;101588.69;4872833;29;46459;-82
2023/04/08 05:29:17;;;;;;;;;11.00;11.00;;;;;9.34;100.00;101593.22;4886066;29;45420;-83
2023/04/08 05:31:44;;;;;;;;;14.33;14.33;;;;;9.40;100.00;101593.44;4856397;29;45720;-83
2023/04/08 05:34:21;;;;;;;;;20.67;18.67;;;;;9.47;100.00;101594.53;4856525;29;45957;-83
2023/04/08 05:36:50;;;;;;;;;16.00;13.67;;;;;9.35;100.00;101599.44;4872507;29;45491;-83
2023/04/08 05:39:16;;;;;;;;;18.33;15.00;;;;;9.32;100.00;101608.22;4855840;29;45499;-82
2023/04/08 05:41:41;;;;;;;;;21.33;17.00;;;;;9.31;100.00;101602.84;4871746;29;45439;-83
2023/04/08 05:44:07;;;;;;;;;20.67;18.00;;;;;9.33;100.00;101609.09;4874061;29;45389;-82
2023/04/08 05:46:32;;;;;;;;;15.50;15.50;;;;;9.34;100.00;101605.63;4870440;29;46024;-83
2023/04/08 05:48:57;;;;;;;;;16.33;16.33;;;;;9.40;100.00;101609.34;4885423;29;45373;-83
2023/04/08 05:51:22;;;;;;;;;17.00;16.00;;;;;9.53;100.00;101620.38;4869482;29;49995;-83
2023/04/08 05:53:48;;;;;;;;;17.33;16.67;;;;;9.60;100.00;101614.44;4885582;29;45532;-83
2023/04/08 05:56:14;;;;;;;;;17.00;17.00;;;;;9.65;100.00;101606.59;4870572;29;55581;-83
2023/04/08 05:58:39;;;;;;;;;18.00;16.67;;;;;9.74;100.00;101620.19;4872589;29;45368;-83
2023/04/08 06:01:06;;;;;;;;;13.00;13.00;;;;;9.85;100.00;101616.09;4854817;29;45412;-83
2023/04/08 06:03:31;;;;;;;;;17.33;16.00;;;;;9.92;100.00;101609.22;4855550;29;44911;-82
2023/04/08 06:05:57;;;;;;;;;18.00;17.00;;;;;10.01;100.00;101609.50;4871453;29;45546;-82
2023/04/08 06:08:23;;;;;;;;;21.00;18.00;;;;;10.12;100.00;101625.75;4870549;29;45450;-83
2023/04/08 06:10:50;;;;;;;;;21.00;21.00;;;;;10.12;100.00;101616.03;4856363;29;45436;-83
2023/04/08 06:13:15;;;;;;;;;18.33;17.00;;;;;10.18;100.00;101637.50;4873101;29;45214;-83
2023/04/08 06:15:41;;;;;;;;;19.00;16.00;;;;;10.30;100.00;101630.75;4885308;29;47173;-83
2023/04/08 06:18:06;;;;;;;;;19.33;17.33;;;;;10.42;100.00;101628.44;4869977;29;45451;-83
2023/04/08 06:20:31;;;;;;;;;19.33;18.67;;;;;10.51;100.00;101628.72;4869366;29;45388;-83
2023/04/08 06:22:57;;;;;;;;;19.00;19.00;;;;;10.56;100.00;101628.84;4886903;29;45452;-83
2023/04/08 06:25:22;;;;;;;;;20.67;18.33;;;;;10.63;100.00;101629.94;4871893;29;45622;-83
2023/04/08 06:27:48;;;;;;;;;25.33;19.67;;;;;10.67;100.00;101623.84;4886456;28;45454;-83
2023/04/08 06:30:13;;;;;;;;;23.33;21.00;;;;;10.73;100.00;101618.69;4869360;29;45480;-83
2023/04/08 06:32:40;;;;;;;;;19.33;18.00;;;;;10.84;100.00;101632.28;4853038;29;45373;-83
2023/04/08 06:35:13;;;;;;;;;23.67;21.00;;;;;10.80;100.00;101625.97;4854178;29;47089;-83
2023/04/08 06:37:38;;;;;;;;;22.67;18.33;;;;;10.92;100.00;101641.38;4868803;29;45704;-83
2023/04/08 06:40:05;;;;;;;;;24.00;23.00;;;;;10.99;100.00;101643.34;4869424;29;45423;-84
2023/04/08 06:42:30;;;;;;;;;21.33;18.33;;;;;10.99;100.00;101648.69;4872579;29;45524;-83
2023/04/08 06:44:56;;;;;;;;;14.33;13.33;;;;;11.00;100.00;101650.47;4872420;29;45610;-83
2023/04/08 06:47:22;;;;;;;;;21.33;20.33;;;;;11.00;100.00;101662.00;4886015;29;45486;-83
2023/04/08 06:49:47;;;;;;;;;22.33;21.33;;;;;10.97;100.00;101661.06;4871111;29;45474;-83
2023/04/08 06:52:12;;;;;;;;;23.33;19.00;;;;;10.98;100.00;101666.38;4862567;29;45397;-83
2023/04/08 06:54:38;;;;;;;;;25.67;24.00;;;;;10.97;100.00;101653.94;4838780;29;47092;-83
2023/04/08 06:57:04;;;;;;;;;24.33;20.33;;;;;11.25;100.00;101678.66;4855217;29;45483;-82
2023/04/08 06:59:30;;;;;;;;;22.00;19.33;;;;;11.28;100.00;101678.72;4840120;29;45495;-83
2023/04/08 07:01:55;;;;;;;;;19.33;19.33;;;;;11.43;100.00;101683.53;4855001;29;45344;-82
2023/04/08 07:04:21;;;;;;;;;17.67;14.67;;;;;11.56;100.00;101674.09;4854291;29;46285;-82
2023/04/08 07:06:46;;;;;;;;;25.00;22.67;;;;;11.65;100.00;101679.66;4853995;29;44901;-83
2023/04/08 07:09:13;;;;;;;;;27.67;26.00;;;;;11.87;100.00;101674.84;4838809;29;44781;-83
2023/04/08 07:11:38;;;;;;;;;24.00;20.67;;;;;11.84;100.00;101680.13;4855336;29;45650;-82
2023/04/08 07:14:03;;;;;;;;;26.33;22.00;;;;;11.84;100.00;101681.03;4854878;29;45436;-83
2023/04/08 07:16:29;;;;;;;;;25.33;20.67;;;;;11.89;100.00;101681.16;4855439;29;45392;-83
2023/04/08 07:18:56;;;;;;;;;25.33;22.33;;;;;12.08;100.00;101687.81;4856940;29;45403;-83
2023/04/08 07:21:23;;;;;;;;;25.33;21.67;;;;;12.12;100.00;101674.59;4862606;29;45431;-83
2023/04/08 07:23:48;;;;;;;;;28.67;23.67;;;;;12.15;99.83;101687.97;4854840;29;45493;-82
2023/04/08 07:26:13;;;;;;;;;19.00;17.33;;;;;12.24;99.23;101681.97;4854723;29;50147;-82
2023/04/08 07:28:39;;;;;;;;;25.33;22.00;;;;;12.31;99.14;101677.66;4855337;29;44799;-82
2023/04/08 07:31:13;;;;;;;;;22.33;20.00;;;;;12.52;97.68;101682.56;4854549;29;45570;-83
2023/04/08 07:33:38;;;;;;;;;20.67;19.33;;;;;12.35;97.79;101677.75;4854026;29;48579;-83
2023/04/08 07:36:04;;;;;;;;;15.33;15.33;;;;;12.37;97.06;101688.47;4854857;29;46297;-83
2023/04/08 07:38:29;;;;;;;;;27.67;21.67;;;;;12.45;97.82;101684.19;4840782;29;45588;-84
2023/04/08 07:40:55;;;;;;;;;20.67;18.00;;;;;12.56;94.65;101693.34;4875241;29;45330;-84
2023/04/08 07:43:20;;;;;;;;;13.67;12.00;;;;;12.47;93.76;101678.91;4858044;29;47038;-83
2023/04/08 07:45:45;;;;;;;;;15.00;14.00;;;;;12.46;94.79;101694.00;4857925;29;44814;-85
2023/04/08 07:48:13;;;;;;;;;16.67;15.67;;;;;12.40;92.20;101685.84;4854517;29;45482;-84
2023/04/08 07:50:39;;;;;;;;;14.33;12.33;;;;;12.26;92.50;101690.00;4856421;29;45373;-85
2023/04/08 07:53:04;;;;;;;;;19.33;15.67;;;;;12.16;93.69;101694.25;4856821;29;45440;-85
2023/04/08 07:55:33;;;;;;;;;11.00;9.67;;;;;12.26;93.75;101700.66;4853631;29;45880;-85
2023/04/08 07:58:00;;;;;;;;;19.33;19.33;;;;;12.08;93.83;101704.72;4854448;29;45455;-84
2023/04/08 08:00:25;;;;;;;;;17.00;15.33;;;;;12.11;94.87;101702.13;4853855;29;45415;-86
2023/04/08 08:02:51;;;;;;;;;25.00;18.33;;;;;12.21;94.34;101704.13;4836746;29;47038;-85
2023/04/08 08:05:18;;;;;;;;;16.33;16.33;;;;;12.33;93.38;101706.16;4855826;29;45429;-84
2023/04/08 08:07:43;;;;;;;;;21.00;21.00;;;;;12.25;93.61;101714.88;4857557;29;45557;-84
2023/04/08 08:10:10;;;;;;;;;21.33;20.33;;;;;12.28;93.81;101699.84;4871470;29;45358;-84
2023/04/08 08:12:35;;;;;;;;;25.33;20.00;;;;;12.34;93.03;101716.00;4855535;29;46011;-83
2023/04/08 08:15:01;;;;;;;;;21.33;19.67;;;;;12.38;93.04;101700.94;4854218;29;45491;-83
2023/04/08 08:17:29;;;;;;;;;23.67;20.33;;;;;12.47;93.15;101695.81;4853296;29;45376;-81
2023/04/08 08:19:55;;;;;;;;;21.00;18.33;;;;;12.50;93.79;101695.88;4852807;29;45755;-82
2023/04/08 08:22:21;;;;;;;;;16.67;16.00;;;;;12.61;93.06;101693.44;4865835;29;45997;-82
2023/04/08 08:24:46;;;;;;;;;21.33;20.67;;;;;12.66;90.87;101705.09;4852267;29;45416;-83
2023/04/08 08:27:12;;;;;;;;;20.33;20.33;;;;;12.59;91.56;101705.84;4865378;29;45539;-82
2023/04/08 08:29:38;;;;;;;;;22.00;19.33;;;;;12.61;91.62;101709.44;4852874;29;45323;-83
2023/04/08 08:32:04;;;;;;;;;21.67;19.33;;;;;12.41;92.60;101711.69;4850970;29;47214;-83
2023/04/08 08:34:29;;;;;;;;;20.00;20.00;;;;;12.50;93.03;101713.66;4852059;29;45505;-83
2023/04/08 08:36:55;;;;;;;;;21.33;21.33;;;;;12.53;92.43;101700.38;4865728;29;45720;-83
2023/04/08 08:39:21;;;;;;;;;18.00;15.33;;;;;12.65;92.55;101710.41;4852917;29;45538;-83
2023/04/08 08:45:09;;;;;;;;;17.00;16.00;;;;;12.94;90.68;101719.91;4852312;29;45763;-82
2023/04/08 08:47:35;;;;;;;;;17.33;17.33;;;;;12.82;89.75;101711.66;4837223;29;45491;-82
2023/04/08 08:50:01;;;;;;;;;16.67;16.67;;;;;12.97;91.02;101713.75;4837197;29;45399;-82
2023/04/08 08:52:26;;;;;;;;;19.00;17.33;;;;;12.94;89.89;101705.66;4835309;29;48295;-83
2023/04/08 08:54:58;;;;;;;;;24.00;21.33;;;;;13.06;90.35;101718.38;4853512;29;45427;-83
2023/04/08 08:57:25;;;;;;;;;18.00;18.00;;;;;13.05;89.26;101716.53;4852868;29;45349;-83
2023/04/08 08:59:50;;;;;;;;;21.00;20.33;;;;;12.93;89.97;101711.88;4853641;29;45356;-83
2023/04/08 09:02:30;;;;;;;;;25.00;23.67;;;;;13.05;88.60;101716.53;4853113;29;46306;-83
2023/04/08 09:05:03;;;;;;;;;20.67;19.33;;;;;12.96;89.15;101715.50;4835807;29;45445;-83
2023/04/08 09:07:31;;;;;;;;;21.00;20.00;;;;;12.83;90.55;101713.47;4852987;29;45532;-83
2023/04/08 09:09:57;;;;;;;;;21.33;21.33;;;;;12.86;91.35;101716.19;4851189;29;45324;-83
2023/04/08 09:12:26;;;;;;;;;21.00;19.00;;;;;12.90;91.54;101722.50;4853397;29;45430;-83
2023/04/08 09:15:02;;;;;;;;;25.67;20.00;;;;;13.02;91.15;101710.28;4851863;29;44905;-84
2023/04/08 09:17:36;;;;;;;;;23.67;21.00;;;;;13.19;91.41;101715.06;4851091;29;45436;-83
2023/04/08 09:20:12;;;;;;;;;21.67;21.00;;;;;13.27;89.31;101713.44;4850991;29;45520;-83
2023/04/08 09:22:56;;;;;;;;;20.00;18.67;;;;;13.34;89.44;101718.03;4850132;29;45379;-83
2023/04/08 09:25:27;;;;;;;;;22.33;22.00;;;;;13.27;89.39;101708.09;4851026;29;45443;-83
2023/04/08 09:27:53;;;;;;;;;21.67;18.67;;;;;13.26;90.37;101711.63;4834040;29;45879;-83
2023/04/08 09:30:21;;;;;;;;;22.33;22.33;;;;;13.40;88.93;101718.16;4851106;29;45402;-84
2023/04/08 09:32:51;;;;;;;;;19.67;18.67;;;;;13.42;86.82;101720.84;4851569;29;45457;-84
2023/04/08 09:35:18;;;;;;;;;20.67;18.33;;;;;13.39;88.13;101724.38;4833752;29;45455;-83
2023/04/08 09:37:43;;;;;;;;;20.33;18.67;;;;;13.34;87.75;101720.72;4833097;29;45473;-83
2023/04/08 09:40:10;;;;;;;;;19.67;18.33;;;;;13.58;89.20;101722.03;4850276;29;45413;-84
2023/04/08 09:42:39;;;;;;;;;19.67;18.67;;;;;13.85;89.42;101720.69;4865685;29;47235;-84
2023/04/08 09:45:06;;;;;;;;;22.67;22.67;;;;;13.93;86.62;101711.03;4850616;29;45690;-84
2023/04/08 09:47:41;;;;;;;;;19.33;18.67;;;;;14.05;84.62;101718.34;4850659;29;45442;-83
2023/04/08 09:50:08;;;;;;;;;16.33;15.00;;;;;13.94;86.06;101713.72;4850980;29;45413;-83
2023/04/08 09:52:50;;;;;;;;;21.33;21.33;;;;;14.07;86.13;101717.47;4851610;29;46644;-83
2023/04/08 09:55:20;;;;;;;;;19.33;19.00;;;;;14.04;85.47;101720.13;4847795;29;45486;-83
2023/04/08 09:58:00;;;;;;;;;18.33;18.33;;;;;14.16;85.45;101720.31;4847199;29;45448;-83
2023/04/08 10:00:33;;;;;;;;;22.00;20.33;;;;;14.20;84.02;101724.81;4851656;29;45408;-82
2023/04/08 10:03:26;;;;;;;;;23.33;18.33;;;;;14.19;83.05;101720.34;4850764;29;48609;-83
2023/04/08 10:05:58;;;;;;;;;20.00;19.00;;;;;14.21;84.42;101725.72;4853241;29;45479;-83
2023/04/08 10:08:25;;;;;;;;;9.67;7.67;;;;;14.16;84.12;101731.00;4853585;29;45397;-82
2023/04/08 10:10:52;;;;;;;;;16.00;16.00;;;;;14.11;84.03;101732.69;4851803;29;45400;-82
2023/04/08 10:13:18;;;;;;;;;19.33;18.00;;;;;14.06;84.36;101709.41;4852553;29;45957;-82
2023/04/08 10:15:46;;;;;;;;;20.67;20.00;;;;;14.12;84.06;101722.94;4851294;29;45750;-82
2023/04/08 10:18:13;;;;;;;;;17.33;17.00;;;;;14.16;83.85;101732.78;4849703;29;45437;-83
2023/04/08 10:20:38;;;;;;;;;12.33;9.00;;;;;14.13;83.63;101730.94;4852469;29;45423;-83
2023/04/08 10:23:04;;;;;;;;;19.33;18.33;;;;;14.17;84.15;101722.09;4866967;29;47221;-82
2023/04/08 10:25:49;;;;;;;;;22.00;18.00;;;;;14.40;82.45;101716.16;4866692;29;45397;-83
2023/04/08 10:28:18;;;;;;;;;18.67;16.33;;;;;14.40;81.39;101718.84;4850755;29;45464;-83
2023/04/08 10:30:43;;;;;;;;;17.33;17.33;;;;;14.19;81.66;101720.34;4851537;29;45433;-83
2023/04/08 10:33:29;;;;;;;;;19.00;17.00;;;;;14.30;82.80;101711.56;4854920;29;45682;-83
2023/04/08 10:36:13;;;;;;;;;17.00;17.00;;;;;14.34;82.07;101708.06;4866988;29;45503;-83
2023/04/08 10:38:41;;;;;;;;;17.67;15.67;;;;;14.26;83.02;101699.94;4837725;29;45750;-83
2023/04/08 10:41:07;;;;;;;;;15.67;15.33;;;;;14.38;82.87;101701.88;4854243;29;45343;-84
2023/04/08 10:43:33;;;;;;;;;17.33;16.67;;;;;14.50;81.91;101688.69;4854026;29;45483;-84
2023/04/08 10:45:59;;;;;;;;;14.33;13.67;;;;;14.53;81.53;101695.84;4838954;29;45474;-84
2023/04/08 10:48:25;;;;;;;;;18.67;16.00;;;;;14.63;81.76;101691.53;4838565;29;45457;-84
2023/04/08 10:50:54;;;;;;;;;18.67;17.33;;;;;14.82;80.31;101690.88;4852990;29;45567;-84
2023/04/08 10:53:38;;;;;;;;;18.33;18.33;;;;;14.90;78.26;101693.63;4820875;29;47223;-83
2023/04/08 10:56:17;;;;;;;;;18.67;15.33;;;;;14.90;78.99;101685.59;4834906;29;45772;-83
2023/04/08 10:58:53;;;;;;;;;17.33;16.67;;;;;14.93;78.48;101675.84;4839295;29;45460;-83
2023/04/08 11:01:20;;;;;;;;;20.00;17.67;;;;;14.77;75.01;101679.22;4854257;29;44805;-83
2023/04/08 11:03:46;;;;;;;;;13.33;12.33;;;;;14.62;74.87;101671.00;4852611;29;45426;-84
2023/04/08 11:06:11;;;;;;;;;14.67;14.67;;;;;14.58;74.71;101670.03;4853298;29;45427;-84
2023/04/08 11:08:37;;;;;;;;;17.33;15.33;;;;;14.58;76.37;101664.69;4853864;29;45445;-83
2023/04/08 11:11:07;;;;;;;;;14.33;14.33;;;;;14.59;77.48;101669.19;4851256;29;45590;-83
2023/04/08 11:13:33;;;;;;;;;15.67;13.00;;;;;14.47;76.98;101651.16;4852083;29;47611;-83